San Diego, CA

3:23 PM PDT on October 22, 2014 (GMT -0700)
Miramar Marine Corps Air Station-Mitscher | Change Station
CLOSE
Current Station
Airport
Location: Miramar MCAS,
Elevation: 476 ft
Nearby Weather Stations

Elev 476 ft 32.86 °N, 117.14 °W | Updated 28 minutes ago

Scattered Clouds
Scattered Clouds
77 °F
Feels Like 77 °F
N
10
Wind Variable Wind from West

Today
High -- | Low -- °F
--% Chance of Precip.
Yesterday
High -- | Low -- °F
Precip. -- in
6:58 AM 6:07 PM
Waning Crescent, 1% visible
Pressure 29.89 in
Visibility 10.0 miles
Clouds Scattered Clouds 18000 ft
Dew Point 59 °F
Humidity 54%
Rainfall 0.00 in
Snow Depth Not available.
UV 3 out of 12
Pollen 3.90 out of 12
Ozone Good
PM2.5 Moderate
Flu Activity Sporadic
METAR KNKX 222155Z 28009KT 10SM SCT180 25/15 A2990 RMK AO2 SLP120 T02500150

More Conditions Fewer Conditions

Pressure 29.89 in
Visibility 10.0 miles
Clouds Scattered Clouds 18000 ft
Dew Point 59 °F
Humidity 54%
Rainfall 0.00 in
Snow Depth Not available.
UV 3 out of 12
Pollen 3.90 out of 12
Ozone Good
PM2.5 Moderate
Flu Activity Sporadic
METAR KNKX 222155Z 28009KT 10SM SCT180 25/15 A2990 RMK AO2 SLP120 T02500150

More Conditions Fewer Conditions

10-Day Weather Forecast

Almanac

Astronomy

Oct. 22, 2014 Rise Set
Actual Time 6:58 AM PDT 6:07 PM PDT
Civil Twilight 6:33 AM PDT 6:32 PM PDT
Nautical Twilight 6:04 AM PDT 7:01 PM PDT
Astronomical Twilight 5:35 AM PDT 7:29 PM PDT
Moon 5:47 AM PDT 5:34 PM PDT
Length of Visible Light 11h 59m
Length of Day
11h 09m
Tomorrow will be 1m 53s shorter.
Waning Crescent, 1% of the Moon is Illuminated
Today
Waning Crescent
Oct 23
New
Oct 30
First Quarter
Nov 6
Full
Nov 14
Last Quarter

Today's Extremes

State Highs State Lows

Community

WunderPhotos

Upload Photos

1,764,064 photos uploaded!

WunderBlogs® & News

Nearby

Air Quality

  Air Quality AQ Index Pollutant
Yesterday Good
OZONE
Yesterday Good
PM2.5
Current Moderate
PM2.5
Current Good
OZONE
Wednesday Good
OZONE
Thursday Moderate
PM2.5
Thursday Good
OZONE

Snow Depth

Station Depth Elevation
Summit Meadow 0 in 9122 ft
Blue Lakes 0 in 8000 ft
Rubicon #2 0 in 7500 ft
Ward Creek #3 0 in 6750 ft
Tahoe City Cross 0 in 6750 ft

Earthquake Activity

City Distance Mag. Time & Date
Alberto Oviedo Mota, Mexico 126 miles 3.5 9:05 PM PDT
2014-10-21
Delta, Mexico 114 miles 2.5 8:53 PM PDT
2014-10-21
Alberto Oviedo Mota, Mexico 124 miles 2.7 4:13 PM PDT
2014-10-21
Alberto Oviedo Mota, Mexico 122 miles 3.3 3:57 PM PDT
2014-10-21
Minimum magnitude displayed is 2.5.

Coastal Water Temperatures

Place Temperature
La Jolla, CA 72.0 °F
San Diego, CA 75.0 °F

Nearby Weather Stations